Time,TemperatureF,DewpointF,PressureIn,WindDirection,WindDirectionDegrees,WindSpeedMPH,WindSpeedGustMPH,Humidity,HourlyPrecipIn,Conditions,Clouds,dailyrainin,SoftwareType,DateUTC
2013-02-02 00:21:00,62.0,43.0,30.15,North,0,0.0,-999.0,50,0.00,,,-99.99,,2013-02-02 08:21:00,
2013-02-02 00:31:00,62.0,43.0,30.15,North,0,0.0,-999.0,50,0.00,,,-99.99,,2013-02-02 08:31:00,
2013-02-02 01:22:00,60.0,43.0,30.15,North,0,0.0,-999.0,53,0.00,,,-99.99,,2013-02-02 09:22:00,
2013-02-02 01:31:00,60.0,43.0,30.15,North,0,0.0,-999.0,53,0.00,,,-99.99,,2013-02-02 09:31:00,
2013-02-02 01:41:00,60.0,43.0,30.15,North,0,0.0,-999.0,53,0.00,,,-99.99,,2013-02-02 09:41:00,
2013-02-02 01:52:00,60.0,43.0,30.15,North,0,0.0,-999.0,53,0.00,,,-99.99,,2013-02-02 09:52:00,
2013-02-02 02:21:00,61.0,43.0,30.14,ESE,110,1.0,-999.0,51,0.00,,,-99.99,,2013-02-02 10:21:00,
2013-02-02 02:31:00,61.0,43.0,30.14,ESE,110,1.0,-999.0,51,0.00,,,-99.99,,2013-02-02 10:31:00,
2013-02-02 02:41:00,61.0,43.0,30.14,ESE,110,1.0,-999.0,51,0.00,,,-99.99,,2013-02-02 10:41:00,
2013-02-02 02:51:00,61.0,43.0,30.14,ESE,110,1.0,-999.0,51,0.00,,,-99.99,,2013-02-02 10:51:00,
2013-02-02 03:21:00,59.0,42.0,30.14,SW,220,1.0,-999.0,54,0.00,,,-99.99,,2013-02-02 11:21:00,
2013-02-02 03:31:00,59.0,42.0,30.14,SW,220,1.0,-999.0,54,0.00,,,-99.99,,2013-02-02 11:31:00,
2013-02-02 03:41:00,59.0,42.0,30.14,SW,220,1.0,-999.0,54,0.00,,,-99.99,,2013-02-02 11:41:00,
2013-02-02 03:52:00,59.0,42.0,30.14,SW,220,1.0,-999.0,54,0.00,,,-99.99,,2013-02-02 11:52:00,
2013-02-02 04:22:00,60.0,42.0,30.14,North,0,0.0,-999.0,52,0.00,,,-99.99,,2013-02-02 12:22:00,
2013-02-02 04:32:00,60.0,42.0,30.14,North,0,0.0,-999.0,52,0.00,,,-99.99,,2013-02-02 12:32:00,
2013-02-02 04:42:00,60.0,42.0,30.14,North,0,0.0,-999.0,52,0.00,,,-99.99,,2013-02-02 12:42:00,
2013-02-02 04:52:00,60.0,42.0,30.14,North,0,0.0,-999.0,52,0.00,,,-99.99,,2013-02-02 12:52:00,
2013-02-02 05:21:00,60.0,43.0,30.14,ESE,120,1.0,-999.0,54,0.00,,,-99.99,,2013-02-02 13:21:00,
2013-02-02 05:32:00,60.0,43.0,30.14,ESE,120,1.0,-999.0,54,0.00,,,-99.99,,2013-02-02 13:32:00,
2013-02-02 05:42:00,60.0,43.0,30.14,ESE,120,1.0,-999.0,54,0.00,,,-99.99,,2013-02-02 13:42:00,
2013-02-02 05:51:00,60.0,43.0,30.14,ESE,120,1.0,-999.0,54,0.00,,,-99.99,,2013-02-02 13:51:00,
2013-02-02 06:22:00,60.0,42.0,30.15,North,0,0.0,-999.0,51,0.00,,,-99.99,,2013-02-02 14:22:00,
2013-02-02 06:32:00,60.0,42.0,30.15,North,0,0.0,-999.0,51,0.00,,,-99.99,,2013-02-02 14:32:00,
2013-02-02 06:42:00,60.0,42.0,30.15,North,0,0.0,-999.0,51,0.00,,,-99.99,,2013-02-02 14:42:00,
2013-02-02 06:52:00,60.0,42.0,30.15,North,0,0.0,-999.0,51,0.00,,,-99.99,,2013-02-02 14:52:00,
2013-02-02 07:22:00,61.0,38.0,30.16,North,0,0.0,-999.0,43,0.00,,,-99.99,,2013-02-02 15:22:00,
2013-02-02 07:32:00,61.0,38.0,30.16,North,0,0.0,-999.0,43,0.00,,,-99.99,,2013-02-02 15:32:00,
2013-02-02 07:42:00,61.0,38.0,30.16,North,0,0.0,-999.0,43,0.00,,,-99.99,,2013-02-02 15:42:00,
2013-02-02 07:52:00,61.0,38.0,30.16,North,0,0.0,-999.0,43,0.00,,,-99.99,,2013-02-02 15:52:00,
2013-02-02 08:22:00,63.0,40.0,30.16,North,0,0.0,-999.0,43,0.00,,,-99.99,,2013-02-02 16:22:00,
2013-02-02 08:32:00,63.0,40.0,30.16,North,0,0.0,-999.0,43,0.00,,,-99.99,,2013-02-02 16:32:00,
2013-02-02 09:22:00,66.0,46.0,30.18,SSE,150,1.0,-999.0,48,0.00,,,-99.99,,2013-02-02 17:22:00,
2013-02-02 09:32:00,66.0,46.0,30.18,SSE,150,1.0,-999.0,48,0.00,,,-99.99,,2013-02-02 17:32:00,
2013-02-02 09:41:00,66.0,46.0,30.18,SSE,150,1.0,-999.0,48,0.00,,,-99.99,,2013-02-02 17:41:00,
2013-02-02 09:52:00,66.0,46.0,30.18,SSE,150,1.0,-999.0,48,0.00,,,-99.99,,2013-02-02 17:52:00,
2013-02-02 10:22:00,68.0,42.0,30.18,SE,130,2.0,-999.0,39,0.00,,,-99.99,,2013-02-02 18:22:00,
2013-02-02 10:31:00,68.0,42.0,30.18,SE,130,2.0,-999.0,39,0.00,,,-99.99,,2013-02-02 18:31:00,
2013-02-02 10:42:00,68.0,42.0,30.18,SE,130,2.0,-999.0,39,0.00,,,-99.99,,2013-02-02 18:42:00,
2013-02-02 10:52:00,68.0,42.0,30.18,SE,130,2.0,-999.0,39,0.00,,,-99.99,,2013-02-02 18:52:00,
2013-02-02 11:21:00,69.0,51.0,30.18,WSW,240,1.0,-999.0,52,0.00,,,-99.99,,2013-02-02 19:21:00,
2013-02-02 11:32:00,69.0,51.0,30.18,WSW,240,1.0,-999.0,52,0.00,,,-99.99,,2013-02-02 19:32:00,
2013-02-02 11:41:00,69.0,51.0,30.18,WSW,240,1.0,-999.0,52,0.00,,,-99.99,,2013-02-02 19:41:00,
2013-02-02 11:51:00,69.0,51.0,30.18,WSW,240,1.0,-999.0,52,0.00,,,-99.99,,2013-02-02 19:51:00,
2013-02-02 12:21:00,69.0,50.0,30.15,WSW,250,2.0,-999.0,50,0.00,,,-99.99,,2013-02-02 20:21:00,
2013-02-02 12:32:00,69.0,50.0,30.15,WSW,250,2.0,-999.0,50,0.00,,,-99.99,,2013-02-02 20:32:00,
2013-02-02 12:41:00,69.0,50.0,30.15,WSW,250,2.0,-999.0,50,0.00,,,-99.99,,2013-02-02 20:41:00,
2013-02-02 12:52:00,69.0,50.0,30.15,WSW,250,2.0,-999.0,50,0.00,,,-99.99,,2013-02-02 20:52:00,
2013-02-02 13:21:00,69.0,49.0,30.12,WSW,250,2.0,-999.0,49,0.00,,,-99.99,,2013-02-02 21:21:00,
2013-02-02 13:32:00,69.0,49.0,30.12,WSW,250,2.0,-999.0,49,0.00,,,-99.99,,2013-02-02 21:32:00,
2013-02-02 13:42:00,69.0,49.0,30.12,WSW,250,2.0,-999.0,49,0.00,,,-99.99,,2013-02-02 21:42:00,
2013-02-02 13:51:00,69.0,49.0,30.12,WSW,250,2.0,-999.0,49,0.00,,,-99.99,,2013-02-02 21:51:00,
2013-02-02 14:21:00,67.0,44.0,30.10,North,0,0.0,-999.0,43,0.00,,,-99.99,,2013-02-02 22:21:00,
2013-02-02 14:32:00,67.0,44.0,30.10,North,0,0.0,-999.0,43,0.00,,,-99.99,,2013-02-02 22:32:00,
2013-02-02 14:42:00,67.0,44.0,30.10,North,0,0.0,-999.0,43,0.00,,,-99.99,,2013-02-02 22:42:00,
2013-02-02 14:52:00,67.0,44.0,30.10,North,0,0.0,-999.0,43,0.00,,,-99.99,,2013-02-02 22:52:00,
2013-02-02 15:21:00,69.0,48.0,30.10,North,0,0.0,-999.0,47,0.00,,,-99.99,,2013-02-02 23:21:00,
2013-02-02 15:32:00,69.0,48.0,30.10,North,0,0.0,-999.0,47,0.00,,,-99.99,,2013-02-02 23:32:00,
2013-02-02 15:41:00,69.0,48.0,30.10,North,0,0.0,-999.0,47,0.00,,,-99.99,,2013-02-02 23:41:00,
2013-02-02 15:52:00,69.0,48.0,30.10,North,0,0.0,-999.0,47,0.00,,,-99.99,,2013-02-02 23:52:00,
2013-02-02 16:21:00,68.0,46.0,30.10,SW,230,1.0,-999.0,46,0.00,,,-99.99,,2013-02-03 00:21:00,
2013-02-02 16:31:00,68.0,46.0,30.10,SW,230,1.0,-999.0,46,0.00,,,-99.99,,2013-02-03 00:31:00,
2013-02-02 16:41:00,68.0,46.0,30.10,SW,230,1.0,-999.0,46,0.00,,,-99.99,,2013-02-03 00:41:00,
2013-02-02 16:51:00,68.0,46.0,30.10,SW,230,1.0,-999.0,46,0.00,,,-99.99,,2013-02-03 00:51:00,
2013-02-02 17:21:00,60.0,47.0,30.12,West,280,4.0,-999.0,61,0.00,,,-99.99,,2013-02-03 01:21:00,
2013-02-02 17:32:00,60.0,47.0,30.12,West,280,4.0,-999.0,61,0.00,,,-99.99,,2013-02-03 01:32:00,
2013-02-02 17:41:00,60.0,47.0,30.12,West,280,4.0,-999.0,61,0.00,,,-99.99,,2013-02-03 01:41:00,
2013-02-02 17:51:00,60.0,47.0,30.12,West,280,4.0,-999.0,61,0.00,,,-99.99,,2013-02-03 01:51:00,
2013-02-02 18:21:00,64.0,43.0,30.12,North,0,0.0,-999.0,47,0.00,,,-99.99,,2013-02-03 02:21:00,
2013-02-02 18:31:00,64.0,43.0,30.12,North,0,0.0,-999.0,47,0.00,,,-99.99,,2013-02-03 02:31:00,
2013-02-02 18:41:00,64.0,43.0,30.12,North,0,0.0,-999.0,47,0.00,,,-99.99,,2013-02-03 02:41:00,
2013-02-02 18:52:00,64.0,43.0,30.12,North,0,0.0,-999.0,47,0.00,,,-99.99,,2013-02-03 02:52:00,
2013-02-02 19:21:00,65.0,43.0,30.14,West,260,1.0,-999.0,44,0.00,,,-99.99,,2013-02-03 03:21:00,
2013-02-02 19:31:00,65.0,43.0,30.14,West,260,1.0,-999.0,44,0.00,,,-99.99,,2013-02-03 03:31:00,
2013-02-02 19:41:00,65.0,43.0,30.14,West,260,1.0,-999.0,44,0.00,,,-99.99,,2013-02-03 03:41:00,
2013-02-02 19:51:00,65.0,43.0,30.14,West,260,1.0,-999.0,44,0.00,,,-99.99,,2013-02-03 03:51:00,
2013-02-02 20:21:00,65.0,41.0,30.14,North,0,0.0,-999.0,42,0.00,,,-99.99,,2013-02-03 04:21:00,
2013-02-02 20:31:00,65.0,41.0,30.14,North,0,0.0,-999.0,42,0.00,,,-99.99,,2013-02-03 04:31:00,
2013-02-02 20:42:00,65.0,41.0,30.14,North,0,0.0,-999.0,42,0.00,,,-99.99,,2013-02-03 04:42:00,
2013-02-02 20:51:00,65.0,41.0,30.14,North,0,0.0,-999.0,42,0.00,,,-99.99,,2013-02-03 04:51:00,
2013-02-02 21:22:00,63.0,43.0,30.13,NNW,330,1.0,-999.0,48,0.00,,,-99.99,,2013-02-03 05:22:00,
2013-02-02 21:32:00,63.0,43.0,30.13,NNW,330,1.0,-999.0,48,0.00,,,-99.99,,2013-02-03 05:32:00,
2013-02-02 21:41:00,63.0,43.0,30.13,NNW,330,1.0,-999.0,48,0.00,,,-99.99,,2013-02-03 05:41:00,
2013-02-02 21:52:00,63.0,43.0,30.13,NNW,330,1.0,-999.0,48,0.00,,,-99.99,,2013-02-03 05:52:00,
2013-02-02 22:21:00,61.0,45.0,30.13,West,280,4.0,-999.0,55,0.00,,,-99.99,,2013-02-03 06:21:00,
2013-02-02 22:32:00,61.0,45.0,30.13,West,280,4.0,-999.0,55,0.00,,,-99.99,,2013-02-03 06:32:00,
2013-02-02 22:41:00,61.0,45.0,30.13,West,280,4.0,-999.0,55,0.00,,,-99.99,,2013-02-03 06:41:00,
2013-02-02 22:52:00,61.0,45.0,30.13,West,280,4.0,-999.0,55,0.00,,,-99.99,,2013-02-03 06:52:00,
2013-02-02 23:21:00,62.0,46.0,30.13,NNE,20,4.0,-999.0,55,0.00,,,-99.99,,2013-02-03 07:21:00,
2013-02-02 23:31:00,62.0,46.0,30.13,NNE,20,4.0,-999.0,55,0.00,,,-99.99,,2013-02-03 07:31:00,
2013-02-02 23:41:00,62.0,46.0,30.13,NNE,20,4.0,-999.0,55,0.00,,,-99.99,,2013-02-03 07:41:00,
2013-02-02 23:52:00,62.0,46.0,30.13,NNE,20,4.0,-999.0,55,0.00,,,-99.99,,2013-02-03 07:52:00,